This is the latest recevied weather packets stored in our database for station/object Seibranz. If no packets are shown the sender has not sent any weather packets the latest 10 day(s).
| Time | Temp. | Humidity | Pressure | Rain* | Wind** | Luminosity | Snow |
|---|---|---|---|---|---|---|---|
| 1777906930 | 20° C | 44% | 1010.1 hPa | 0 mm | - | - | - |
| 1777905129 | 20.56° C | 40% | 1010.4 hPa | 0 mm | - | - | - |
| 1777903330 | 20.56° C | 49% | 1010.5 hPa | 0 mm | - | - | - |
| 1777901532 | 20.56° C | 47% | 1010.7 hPa | 0 mm | - | - | - |
| 1777899735 | 20° C | 48% | 1010.9 hPa | 0 mm | - | - | - |
| 1777897935 | 19.44° C | 53% | 1011.2 hPa | 0 mm | - | - | - |
| 1777896130 | 19.44° C | 51% | 1011.2 hPa | 0 mm | - | - | - |
| 1777894331 | 19.44° C | 48% | 1011.4 hPa | 0 mm | - | - | - |
| 1777892530 | 19.44° C | 47% | 1011.6 hPa | 0 mm | - | - | - |
| 1777890735 | 18.89° C | 50% | 1011.8 hPa | 0 mm | - | - | - |
| 1777888932 | 19.44° C | 56% | 1012.2 hPa | 0 mm | - | - | - |
| 1777887130 | 18.33° C | 57% | 1012.4 hPa | 0 mm | - | - | - |
| 1777885331 | 17.78° C | 54% | 1012.6 hPa | 0 mm | - | - | - |
| 1777883533 | 16.67° C | 51% | 1012.9 hPa | 0 mm | - | - | - |
| 1777881731 | 16.67° C | 55% | 1013.3 hPa | 0 mm | - | - | - |
| 1777879930 | 15.56° C | 58% | 1013.3 hPa | 0 mm | - | - | - |
| 1777878132 | 13.89° C | 62% | 1013.5 hPa | 0 mm | - | - | - |
| 1777876331 | 14.44° C | 61% | 1013.3 hPa | 0 mm | - | - | - |
| 1777874532 | 13.89° C | 65% | 1013.4 hPa | 0 mm | - | - | - |
| 1777872731 | 12.78° C | 73% | 1013.4 hPa | 0 mm | - | - | - |
| 1777870930 | 7.78° C | 87% | 1013.4 hPa | 0 mm | - | - | - |
| 1777869131 | 6.11° C | 90% | 1013.2 hPa | 0 mm | - | - | - |
| 1777867331 | 5.56° C | 90% | 1013.3 hPa | 0 mm | - | - | - |
| 1777865531 | 5.56° C | 89% | 1013.6 hPa | 0 mm | - | - | - |
| 1777863732 | 7.22° C | 87% | 1013.7 hPa | 0 mm | - | - | - |
* Rain since midnight (hover to see other rain measurements)
** Current wind speed in m/s (hover to see current wind gust speed)